createdAt,value
2023-02-24T00:00:39.001Z,9.13
2023-02-24T00:03:18.399Z,9.40
2023-02-24T00:05:51.999Z,8.53
2023-02-24T00:08:22.856Z,6.50
2023-02-24T00:10:54.411Z,6.30
2023-02-24T00:16:07.825Z,6.60
2023-02-24T00:18:39.964Z,7.27
2023-02-24T00:21:18.959Z,8.13
2023-02-24T00:23:53.598Z,7.03
2023-02-24T00:26:36.471Z,7.30
2023-02-24T00:29:16.407Z,7.13
2023-02-24T00:31:50.072Z,7.33
2023-02-24T00:34:25.938Z,8.50
2023-02-24T00:37:09.366Z,7.07
2023-02-24T00:39:51.169Z,6.95
2023-02-24T00:42:23.954Z,6.87
2023-02-24T00:45:08.154Z,7.03
2023-02-24T00:47:40.450Z,6.57
2023-02-24T00:50:14.573Z,7.33
2023-02-24T00:52:53.753Z,7.37
2023-02-24T00:58:13.313Z,7.73
2023-02-24T01:00:55.222Z,7.23
2023-02-24T01:03:32.408Z,6.72
2023-02-24T01:06:12.606Z,7.00
2023-02-24T01:08:52.925Z,7.07
2023-02-24T01:11:44.986Z,7.00
2023-02-24T01:14:23.105Z,7.15
2023-02-24T01:17:07.113Z,6.57
2023-02-24T01:19:53.678Z,7.73
2023-02-24T01:22:27.336Z,6.40
2023-02-24T01:25:32.237Z,7.53
2023-02-24T01:28:04.969Z,4.80
2023-02-24T01:30:38.082Z,7.10
2023-02-24T01:33:15.319Z,7.53
2023-02-24T01:35:49.189Z,4.93
2023-02-24T01:38:23.560Z,8.00
2023-02-24T01:41:02.143Z,6.60
2023-02-24T01:43:34.436Z,7.87
2023-02-24T01:46:14.663Z,6.07
2023-02-24T01:48:45.413Z,6.07
2023-02-24T01:51:19.155Z,5.97
2023-02-24T01:53:49.484Z,5.60
2023-02-24T01:56:24.991Z,6.47
2023-02-24T01:58:55.711Z,5.97
2023-02-24T02:01:42.222Z,7.03
2023-02-24T02:04:32.888Z,7.67
2023-02-24T02:07:07.743Z,6.40
2023-02-24T02:09:44.565Z,8.33
2023-02-24T02:12:21.772Z,5.97
2023-02-24T02:14:55.951Z,6.23
2023-02-24T02:17:58.538Z,6.47
2023-02-24T02:21:13.687Z,6.53
2023-02-24T02:23:59.049Z,5.57
2023-02-24T02:27:00.037Z,5.97
2023-02-24T02:29:44.874Z,6.50
2023-02-24T02:32:24.909Z,5.60
2023-02-24T02:35:14.249Z,6.27
2023-02-24T02:38:28.495Z,6.37
2023-02-24T02:41:31.664Z,5.30
2023-02-24T02:44:21.336Z,5.60
2023-02-24T02:47:08.642Z,5.27
2023-02-24T02:49:46.912Z,6.53
2023-02-24T02:52:27.498Z,6.53
2023-02-24T02:55:07.528Z,4.37
2023-02-24T02:57:40.175Z,3.50
2023-02-24T03:00:31.744Z,5.87
2023-02-24T03:03:12.628Z,5.43
2023-02-24T03:06:01.160Z,5.37
2023-02-24T03:08:40.192Z,5.83
2023-02-24T03:11:15.251Z,6.57
2023-02-24T03:13:50.775Z,6.30
2023-02-24T03:16:25.300Z,3.87
2023-02-24T03:19:04.701Z,5.57
2023-02-24T03:21:55.128Z,5.60
2023-02-24T03:24:42.071Z,4.80
2023-02-24T03:27:44.607Z,6.57
2023-02-24T03:30:47.561Z,5.80
2023-02-24T03:33:35.673Z,4.82
2023-02-24T03:36:35.767Z,4.80
2023-02-24T03:39:14.183Z,5.32
2023-02-24T03:42:27.136Z,5.57
2023-02-24T03:45:00.817Z,5.83
2023-02-24T03:47:43.074Z,5.70
2023-02-24T03:53:33.453Z,6.57
2023-02-24T03:56:40.923Z,5.50
2023-02-24T03:59:27.279Z,6.07
2023-02-24T04:02:15.126Z,4.60
2023-02-24T04:05:12.229Z,5.83
2023-02-24T04:08:04.543Z,4.57
2023-02-24T04:10:55.774Z,5.93
2023-02-24T04:13:53.044Z,6.20
2023-02-24T04:16:40.451Z,4.53
2023-02-24T04:19:16.663Z,5.70
2023-02-24T04:22:04.348Z,5.13
2023-02-24T04:24:35.009Z,6.13
2023-02-24T04:27:18.700Z,5.17
2023-02-24T04:29:56.223Z,4.17
2023-02-24T04:32:30.243Z,5.10
2023-02-24T04:35:19.726Z,6.57
2023-02-24T04:38:07.041Z,3.37
2023-02-24T04:40:44.928Z,7.50
2023-02-24T04:43:14.266Z,9.53
2023-02-24T04:45:44.349Z,6.93
2023-02-24T04:48:21.305Z,5.47
2023-02-24T04:50:56.224Z,3.47
2023-02-24T04:53:27.349Z,4.73
2023-02-24T04:56:00.405Z,4.50
2023-02-24T04:58:36.196Z,3.80
2023-02-24T05:01:14.441Z,4.30
2023-02-24T05:03:45.822Z,3.73
2023-02-24T05:06:21.081Z,3.83
2023-02-24T05:08:54.707Z,4.10
2023-02-24T05:11:25.687Z,4.13
2023-02-24T05:14:00.085Z,3.33
2023-02-24T05:16:33.174Z,5.30
2023-02-24T05:19:16.324Z,4.67
2023-02-24T05:21:53.886Z,4.27
2023-02-24T05:24:22.572Z,3.73
2023-02-24T05:27:00.817Z,5.07
2023-02-24T05:29:36.906Z,4.47
2023-02-24T05:32:10.952Z,4.50
2023-02-24T05:34:45.444Z,5.30
2023-02-24T05:37:19.272Z,4.00
2023-02-24T05:42:35.513Z,3.97
2023-02-24T05:48:01.987Z,5.63
2023-02-24T05:53:13.393Z,6.63
2023-02-24T05:55:45.330Z,7.37
2023-02-24T05:58:16.514Z,4.00
2023-02-24T06:00:53.820Z,5.50
2023-02-24T06:03:38.426Z,4.80
2023-02-24T06:06:18.398Z,5.43
2023-02-24T06:08:53.133Z,4.93
2023-02-24T06:11:26.864Z,4.67
2023-02-24T06:16:55.775Z,4.17
2023-02-24T06:19:32.594Z,3.37
2023-02-24T06:22:12.285Z,3.73
2023-02-24T06:24:49.554Z,4.63
2023-02-24T06:27:35.761Z,5.90
2023-02-24T06:30:11.250Z,4.07
2023-02-24T06:32:42.597Z,4.97
2023-02-24T06:35:13.197Z,3.22
2023-02-24T06:37:49.122Z,4.67
2023-02-24T06:40:25.847Z,3.77
2023-02-24T06:42:55.609Z,4.87
2023-02-24T06:45:38.742Z,3.87
2023-02-24T06:48:16.106Z,3.70
2023-02-24T06:50:51.572Z,4.90
2023-02-24T06:53:29.437Z,4.50
2023-02-24T06:55:58.802Z,4.97
2023-02-24T06:58:31.636Z,5.50
2023-02-24T07:01:06.707Z,5.57
2023-02-24T07:03:50.317Z,4.83
2023-02-24T07:06:26.523Z,4.57
2023-02-24T07:09:02.097Z,4.83
2023-02-24T07:11:36.386Z,4.90
2023-02-24T07:14:10.834Z,3.03
2023-02-24T07:16:47.689Z,4.27
2023-02-24T07:19:20.718Z,4.27
2023-02-24T07:22:02.963Z,3.20
2023-02-24T07:24:49.140Z,5.57
2023-02-24T07:27:27.773Z,6.07
2023-02-24T07:30:06.280Z,4.70
2023-02-24T07:32:41.169Z,3.83
2023-02-24T07:35:09.914Z,5.33
2023-02-24T07:37:43.124Z,3.17
2023-02-24T07:40:17.964Z,4.67
2023-02-24T07:42:52.749Z,4.37
2023-02-24T07:45:24.922Z,3.90
2023-02-24T07:47:55.561Z,5.77
2023-02-24T07:50:28.409Z,4.53
2023-02-24T07:53:05.893Z,3.67
2023-02-24T07:55:50.388Z,5.97
2023-02-24T07:58:26.653Z,5.37
2023-02-24T08:01:09.148Z,4.47
2023-02-24T08:03:44.499Z,4.93
2023-02-24T08:09:23.324Z,5.83
2023-02-24T08:12:04.037Z,5.03
2023-02-24T08:17:28.817Z,4.40
2023-02-24T08:20:22.937Z,4.73
2023-02-24T08:23:06.930Z,5.93
2023-02-24T08:25:38.722Z,5.80
2023-02-24T08:28:13.634Z,5.18
2023-02-24T08:30:50.608Z,5.43
2023-02-24T08:33:33.121Z,4.77
2023-02-24T08:36:12.496Z,7.03
2023-02-24T08:38:58.476Z,5.90
2023-02-24T08:41:45.588Z,6.60
2023-02-24T08:44:27.631Z,5.23
2023-02-24T08:49:44.711Z,6.07
2023-02-24T08:52:17.012Z,4.60
2023-02-24T08:54:49.212Z,7.38
2023-02-24T08:57:28.409Z,6.27
2023-02-24T09:00:09.466Z,6.43
2023-02-24T09:02:45.130Z,5.77
2023-02-24T09:05:32.120Z,7.10
2023-02-24T09:08:05.228Z,6.63
2023-02-24T09:10:51.478Z,5.60
2023-02-24T09:13:24.982Z,5.03
2023-02-24T09:15:54.961Z,5.73
2023-02-24T09:18:38.716Z,6.50
2023-02-24T09:21:43.270Z,6.17
2023-02-24T09:24:17.949Z,5.50
2023-02-24T09:26:48.141Z,6.07
2023-02-24T09:29:37.915Z,6.10
2023-02-24T09:32:09.633Z,6.73
2023-02-24T09:34:44.222Z,8.93
2023-02-24T09:37:36.222Z,5.93
2023-02-24T09:40:24.984Z,6.95
2023-02-24T09:42:58.295Z,5.57
2023-02-24T09:45:37.059Z,6.80
2023-02-24T09:48:23.452Z,5.73
2023-02-24T09:51:08.876Z,6.30
2023-02-24T09:53:51.524Z,7.80
2023-02-24T09:56:46.537Z,5.20
2023-02-24T09:59:36.770Z,6.47
2023-02-24T10:02:42.638Z,5.17
2023-02-24T10:05:55.973Z,5.77
2023-02-24T10:08:44.353Z,6.17
2023-02-24T10:11:22.236Z,5.13
2023-02-24T10:14:07.169Z,7.23
2023-02-24T10:17:11.230Z,5.77
2023-02-24T10:19:59.419Z,6.47
2023-02-24T10:22:54.772Z,6.03
2023-02-24T10:25:40.682Z,5.83
2023-02-24T10:28:37.116Z,5.83
2023-02-24T10:31:33.418Z,6.40
2023-02-24T10:34:06.472Z,6.63
2023-02-24T10:39:31.068Z,7.97
2023-02-24T10:42:24.476Z,8.00
2023-02-24T10:45:03.131Z,6.97
2023-02-24T10:47:35.143Z,5.43
2023-02-24T10:50:13.955Z,7.22
2023-02-24T10:53:19.622Z,9.33
2023-02-24T10:56:15.468Z,9.33
2023-02-24T10:59:23.755Z,7.20
2023-02-24T11:02:27.510Z,8.83
2023-02-24T11:05:27.566Z,7.03
2023-02-24T11:11:56.420Z,6.60
2023-02-24T11:15:00.519Z,7.93
2023-02-24T11:17:28.537Z,6.53
2023-02-24T11:20:10.871Z,8.53
2023-02-24T11:22:55.182Z,6.40
2023-02-24T11:26:03.343Z,6.37
2023-02-24T11:29:18.194Z,7.50
2023-02-24T11:32:23.355Z,7.43
2023-02-24T11:35:16.016Z,7.63
2023-02-24T11:38:27.771Z,8.23
2023-02-24T11:41:29.815Z,8.93
2023-02-24T11:44:37.342Z,7.05
2023-02-24T11:47:19.988Z,7.90
2023-02-24T11:49:58.949Z,7.80
2023-02-24T11:55:35.627Z,8.73
2023-02-24T11:58:22.869Z,6.63
2023-02-24T12:01:27.201Z,6.03
2023-02-24T12:04:35.747Z,7.87
2023-02-24T12:07:30.351Z,7.47
2023-02-24T12:10:21.046Z,7.00
2023-02-24T12:13:14.143Z,7.07
2023-02-24T12:16:22.279Z,8.23
2023-02-24T12:19:05.749Z,6.33
2023-02-24T12:21:59.668Z,7.00
2023-02-24T12:24:27.979Z,6.87
2023-02-24T12:27:24.858Z,6.27
2023-02-24T12:30:51.653Z,6.13
2023-02-24T12:37:02.091Z,6.83
2023-02-24T12:39:33.565Z,6.93
2023-02-24T12:42:28.936Z,6.45
2023-02-24T12:45:51.788Z,8.27
2023-02-24T12:48:39.428Z,7.10
2023-02-24T12:51:48.692Z,7.23
2023-02-24T12:54:49.910Z,8.17
2023-02-24T12:57:42.341Z,5.80
2023-02-24T13:00:50.900Z,7.53
2023-02-24T13:03:42.526Z,7.40
2023-02-24T13:06:57.715Z,6.97
2023-02-24T13:10:09.197Z,5.90
2023-02-24T13:15:57.930Z,6.00
2023-02-24T13:18:42.778Z,6.53
2023-02-24T13:21:33.178Z,8.20
2023-02-24T13:24:03.465Z,6.10
2023-02-24T13:26:43.942Z,5.77
2023-02-24T13:29:17.451Z,6.20
2023-02-24T13:31:59.673Z,6.73
2023-02-24T13:34:45.869Z,5.63
2023-02-24T13:37:16.297Z,7.60
2023-02-24T13:39:46.701Z,6.37
2023-02-24T13:42:35.912Z,6.83
2023-02-24T13:45:10.932Z,6.17
2023-02-24T13:48:01.558Z,7.63
2023-02-24T13:51:29.129Z,5.63
2023-02-24T13:54:42.714Z,5.83
2023-02-24T13:57:49.305Z,7.20
2023-02-24T14:03:31.134Z,7.03
2023-02-24T14:08:58.194Z,7.40
2023-02-24T14:11:30.149Z,5.97
2023-02-24T14:14:03.886Z,6.73
2023-02-24T14:16:48.554Z,7.33
2023-02-24T14:19:22.690Z,8.30
2023-02-24T14:22:02.576Z,6.10
2023-02-24T14:24:43.403Z,5.77
2023-02-24T14:27:34.928Z,6.78
2023-02-24T14:30:07.391Z,7.47
2023-02-24T14:32:38.170Z,8.57
2023-02-24T14:35:16.879Z,7.57
2023-02-24T14:37:47.435Z,6.73
2023-02-24T14:40:24.019Z,7.23
2023-02-24T14:43:12.633Z,7.03
2023-02-24T14:45:55.588Z,7.03
2023-02-24T14:48:38.070Z,6.40
2023-02-24T14:54:12.751Z,7.20
2023-02-24T14:56:45.815Z,5.83
2023-02-24T14:59:41.122Z,6.77
2023-02-24T15:02:23.053Z,7.30
2023-02-24T15:07:32.081Z,7.10
2023-02-24T15:10:01.448Z,6.03
2023-02-24T15:12:41.887Z,7.37
2023-02-24T15:15:38.329Z,7.13
2023-02-24T15:18:29.407Z,6.70
2023-02-24T15:21:08.023Z,7.60
2023-02-24T15:23:47.051Z,6.37
2023-02-24T15:26:40.264Z,6.87
2023-02-24T15:29:31.885Z,6.43
2023-02-24T15:32:04.378Z,7.32
2023-02-24T15:34:42.366Z,7.23
2023-02-24T15:37:32.248Z,6.67
2023-02-24T15:40:23.444Z,7.97
2023-02-24T15:42:56.051Z,7.27
2023-02-24T15:45:40.084Z,6.87
2023-02-24T15:48:28.059Z,6.50
2023-02-24T15:51:09.611Z,5.67
2023-02-24T15:53:39.905Z,6.33
2023-02-24T15:56:15.487Z,6.13
2023-02-24T15:58:44.757Z,5.07
2023-02-24T16:01:15.214Z,4.97
2023-02-24T16:03:46.141Z,5.90
2023-02-24T16:06:23.487Z,6.60
2023-02-24T16:08:54.679Z,7.20
2023-02-24T16:11:31.499Z,8.35
2023-02-24T16:14:04.208Z,5.20
2023-02-24T16:16:50.108Z,4.82
2023-02-24T16:19:24.389Z,6.37
2023-02-24T16:22:04.492Z,5.60
2023-02-24T16:24:40.302Z,4.83
2023-02-24T16:27:12.417Z,4.83
2023-02-24T16:29:46.231Z,5.50
2023-02-24T16:32:17.691Z,5.57
2023-02-24T16:34:47.073Z,7.13
2023-02-24T16:37:24.880Z,6.07
2023-02-24T16:40:01.165Z,5.90
2023-02-24T16:42:37.632Z,5.43
2023-02-24T16:45:15.424Z,4.70
2023-02-24T16:48:00.597Z,4.90
2023-02-24T16:50:45.748Z,6.63
2023-02-24T16:53:19.628Z,5.55
2023-02-24T16:55:58.765Z,5.83
2023-02-24T16:58:29.391Z,5.23
2023-02-24T17:01:05.628Z,6.90
2023-02-24T17:03:51.896Z,6.67
2023-02-24T17:06:26.895Z,5.27
2023-02-24T17:08:58.108Z,9.97
2023-02-24T17:11:29.849Z,7.77
2023-02-24T17:14:02.276Z,7.22
2023-02-24T17:16:35.835Z,6.47
2023-02-24T17:19:05.584Z,7.13
2023-02-24T17:21:37.127Z,6.00
2023-02-24T17:24:07.618Z,7.38
2023-02-24T17:26:42.359Z,7.53
2023-02-24T17:29:12.878Z,5.40
2023-02-24T17:31:48.437Z,7.17
2023-02-24T17:34:26.164Z,5.97
2023-02-24T17:37:10.847Z,6.43
2023-02-24T17:39:47.538Z,5.93
2023-02-24T17:42:19.648Z,6.67
2023-02-24T17:44:49.159Z,6.75
2023-02-24T17:47:24.809Z,6.73
2023-02-24T17:49:54.477Z,6.93
2023-02-24T17:52:25.335Z,6.33
2023-02-24T17:55:06.354Z,7.67
2023-02-24T17:57:39.859Z,6.97
2023-02-24T18:00:20.983Z,5.70
2023-02-24T18:02:58.707Z,7.03
2023-02-24T18:05:28.755Z,8.00
2023-02-24T18:08:07.321Z,5.73
2023-02-24T18:10:43.605Z,11.17
2023-02-24T18:13:14.295Z,8.17
2023-02-24T18:15:45.886Z,6.60
2023-02-24T18:18:16.421Z,8.10
2023-02-24T18:20:48.890Z,7.23
2023-02-24T18:23:22.933Z,8.30
2023-02-24T18:25:54.810Z,8.83
2023-02-24T18:28:25.934Z,9.80
2023-02-24T18:30:57.597Z,7.23
2023-02-24T18:33:35.424Z,7.75
2023-02-24T18:36:10.025Z,7.63
2023-02-24T18:38:40.553Z,9.80
2023-02-24T18:41:21.232Z,7.50
2023-02-24T18:43:53.053Z,11.83
2023-02-24T18:51:26.898Z,6.53
2023-02-24T18:53:57.465Z,7.32
2023-02-24T18:56:29.109Z,5.87
2023-02-24T18:58:59.494Z,8.27
2023-02-24T19:01:43.727Z,7.97
2023-02-24T19:04:18.412Z,8.10
2023-02-24T19:07:03.677Z,7.17
2023-02-24T19:09:40.226Z,8.67
2023-02-24T19:12:18.010Z,4.47
2023-02-24T19:14:48.605Z,7.40
2023-02-24T19:17:28.907Z,6.90
2023-02-24T19:19:57.183Z,7.27
2023-02-24T19:22:26.102Z,6.60
2023-02-24T19:24:56.551Z,6.20
2023-02-24T19:27:28.904Z,8.03
2023-02-24T19:30:00.373Z,6.20
2023-02-24T19:32:32.277Z,8.85
2023-02-24T19:35:10.434Z,7.27
2023-02-24T19:37:41.385Z,5.97
2023-02-24T19:40:16.806Z,6.57
2023-02-24T19:42:56.094Z,7.63
2023-02-24T19:45:34.852Z,5.90
2023-02-24T19:48:08.810Z,6.73
2023-02-24T19:50:45.562Z,6.47
2023-02-24T19:53:24.428Z,9.13
2023-02-24T19:55:55.386Z,5.73
2023-02-24T19:58:27.263Z,7.07
2023-02-24T20:03:30.260Z,6.10
2023-02-24T20:06:00.447Z,5.57
2023-02-24T20:08:33.956Z,6.90
2023-02-24T20:11:05.471Z,6.63
2023-02-24T20:13:36.129Z,5.53
2023-02-24T20:16:26.038Z,5.70
2023-02-24T20:19:03.925Z,5.67
2023-02-24T20:24:27.452Z,7.27
2023-02-24T20:26:56.224Z,4.18
2023-02-24T20:29:32.107Z,5.43
2023-02-24T20:32:01.624Z,5.80
2023-02-24T20:34:33.357Z,5.57
2023-02-24T20:37:04.900Z,5.53
2023-02-24T20:39:45.764Z,6.43
2023-02-24T20:42:17.038Z,4.68
2023-02-24T20:45:03.868Z,7.23
2023-02-24T20:47:33.608Z,6.90
2023-02-24T20:50:10.061Z,5.73
2023-02-24T20:52:40.706Z,6.18
2023-02-24T20:55:12.421Z,5.40
2023-02-24T20:57:42.771Z,4.82
2023-02-24T21:00:11.191Z,4.87
2023-02-24T21:02:46.421Z,4.30
2023-02-24T21:05:37.755Z,4.53
2023-02-24T21:08:11.274Z,4.53
2023-02-24T21:10:47.106Z,4.13
2023-02-24T21:13:22.321Z,3.97
2023-02-24T21:16:01.504Z,3.23
2023-02-24T21:18:40.922Z,5.00
2023-02-24T21:21:18.413Z,4.43
2023-02-24T21:23:54.987Z,4.80
2023-02-24T21:26:32.849Z,4.93
2023-02-24T21:29:08.618Z,4.80
2023-02-24T21:31:40.028Z,4.83
2023-02-24T21:34:12.055Z,3.83
2023-02-24T21:36:41.661Z,4.68
2023-02-24T21:39:17.701Z,4.65
2023-02-24T21:41:51.791Z,5.73
2023-02-24T21:44:25.654Z,5.07
2023-02-24T21:46:59.387Z,4.10
2023-02-24T21:49:35.283Z,4.73
2023-02-24T21:52:08.392Z,6.37
2023-02-24T21:54:54.887Z,5.00
2023-02-24T21:57:26.269Z,6.10
2023-02-24T21:59:55.224Z,5.22
2023-02-24T22:02:25.130Z,3.70
2023-02-24T22:05:06.686Z,3.83
2023-02-24T22:07:48.685Z,6.03
2023-02-24T22:12:51.073Z,3.42
2023-02-24T22:15:28.025Z,3.97
2023-02-24T22:18:01.501Z,3.53
2023-02-24T22:20:31.364Z,4.50
2023-02-24T22:23:04.304Z,4.83
2023-02-24T22:25:42.021Z,3.47
2023-02-24T22:28:10.786Z,4.57
2023-02-24T22:30:41.656Z,5.73
2023-02-24T22:33:18.169Z,4.77
2023-02-24T22:35:50.141Z,3.10
2023-02-24T22:38:27.514Z,4.90
2023-02-24T22:41:04.445Z,4.27
2023-02-24T22:43:34.752Z,3.17
2023-02-24T22:46:12.666Z,5.33
2023-02-24T22:48:50.879Z,3.60
2023-02-24T22:51:20.658Z,4.20
2023-02-24T22:54:14.671Z,4.07
2023-02-24T22:56:46.101Z,4.73
2023-02-24T23:02:10.125Z,4.13
2023-02-24T23:04:39.829Z,4.27
2023-02-24T23:07:11.747Z,4.20
2023-02-24T23:12:27.031Z,3.07
2023-02-24T23:14:58.725Z,4.27
2023-02-24T23:17:34.308Z,3.17
2023-02-24T23:20:14.769Z,2.37
2023-02-24T23:22:48.848Z,3.07
2023-02-24T23:25:19.629Z,3.40
2023-02-24T23:27:53.002Z,2.83
2023-02-24T23:30:27.573Z,3.67
2023-02-24T23:33:07.424Z,2.87
2023-02-24T23:35:39.552Z,2.77
2023-02-24T23:38:13.582Z,3.97
2023-02-24T23:40:50.168Z,3.57
2023-02-24T23:43:21.553Z,2.90
2023-02-24T23:45:55.536Z,3.30
2023-02-24T23:48:26.439Z,2.97
2023-02-24T23:51:13.936Z,3.17
2023-02-24T23:53:45.657Z,3.23
2023-02-24T23:56:41.583Z,1.75
2023-02-24T23:59:24.214Z,2.67
